Terminal Aerodrome Forecast
Issued by NWS

Home | Current Version | Previous Version | Text Only | Print | Product List | Glossary On
Versions: 1 2 3 4 5 6 7 8 9 10 11 12 13 14 15 16 17 18 19 20 21 22 23 24 25 26 27 28
000
FTUS43 KLSX 231646 AAC
TAFUIN
TAF AMD
KUIN 231646Z 2317/2412 04012KT 5SM BR OVC007
     FM232100 08014KT P6SM OVC015
     FM240200 11012G19KT P6SM BKN025
     FM240500 15013G18KT P6SM BKN045=

USA.gov is the U.S. government's official web portal to all federal, state and local government web resources and services.